Time;durP1;ratioP1;P1;durP2;ratioP2;P2;SDS_P1;SDS_P2;PMS_P1;PMS_P2;Temp;Humidity;BMP_temperature;BMP_pressure;BME280_temperature;BME280_humidity;BME280_pressure;Samples;Min_cycle;Max_cycle;Signal;HPM_P1;HPM_P2
2023/08/23 00:01:57;;;;;;;;;4.00;2.20;;;;;27.42;45.31;101562.09;5077287;27;45269;-61
2023/08/23 00:04:23;;;;;;;;;3.25;3.25;;;;;27.45;45.92;101567.28;5077045;27;45334;-62
2023/08/23 00:06:48;;;;;;;;;3.50;3.50;;;;;27.36;45.40;101546.28;5078045;27;45320;-64
2023/08/23 00:09:16;;;;;;;;;3.50;3.50;;;;;27.35;45.55;101550.81;5078110;27;45586;-62
2023/08/23 00:11:42;;;;;;;;;3.00;3.00;;;;;27.42;45.58;101559.41;5077692;27;45903;-64
2023/08/23 00:14:07;;;;;;;;;4.25;4.25;;;;;27.39;45.27;101552.38;5077154;28;45511;-63
2023/08/23 00:16:33;;;;;;;;;4.00;4.00;;;;;27.33;45.58;101543.78;5075875;27;45506;-63
2023/08/23 00:18:58;;;;;;;;;2.25;2.25;;;;;27.34;45.54;101556.28;5077244;28;45454;-64
2023/08/23 00:21:24;;;;;;;;;3.75;3.75;;;;;27.36;45.16;101546.28;5078175;28;45345;-65
2023/08/23 00:23:53;;;;;;;;;4.00;3.25;;;;;27.22;45.16;101523.72;5078912;27;45511;-65
2023/08/23 00:26:18;;;;;;;;;5.00;3.75;;;;;27.22;45.63;101544.38;5078506;27;45523;-65
2023/08/23 00:28:44;;;;;;;;;3.00;3.00;;;;;27.16;45.27;101542.00;5080473;27;45303;-64
2023/08/23 00:31:09;;;;;;;;;3.00;2.00;;;;;27.02;45.54;101527.47;5080600;28;45436;-61
2023/08/23 00:33:35;;;;;;;;;2.00;2.00;;;;;27.09;45.56;101536.06;5080975;27;45278;-64
2023/08/23 00:36:01;;;;;;;;;2.00;2.00;;;;;27.15;45.47;101538.44;5081321;27;45645;-63
2023/08/23 00:38:26;;;;;;;;;2.50;2.50;;;;;27.14;45.17;101534.00;5080295;28;46534;-64
2023/08/23 00:40:52;;;;;;;;;3.00;3.00;;;;;27.03;45.14;101517.59;5114173;27;45380;-64
2023/08/23 00:43:17;;;;;;;;;1.50;1.00;;;;;26.96;45.36;101516.22;5081685;27;45417;-64
2023/08/23 00:45:43;;;;;;;;;2.50;2.50;;;;;26.85;45.63;101509.56;5081149;28;46073;-65
2023/08/23 00:48:11;;;;;;;;;4.00;1.00;;;;;26.88;45.58;101510.38;5080760;27;46084;-63
2023/08/23 00:50:39;;;;;;;;;2.40;2.40;;;;;26.89;45.78;101504.91;5114522;27;45767;-65
2023/08/23 00:53:07;;;;;;;;;2.25;2.25;;;;;26.85;45.45;101485.38;5081075;27;45374;-63
2023/08/23 00:55:33;;;;;;;;;1.25;1.25;;;;;26.98;45.17;101504.41;5079751;27;45394;-62
2023/08/23 00:57:59;;;;;;;;;3.25;2.75;;;;;26.93;45.55;101490.34;5081088;27;46261;-63
2023/08/23 01:00:26;;;;;;;;;2.50;2.50;;;;;26.98;45.03;101490.09;5079564;27;45377;-63
2023/08/23 01:02:52;;;;;;;;;2.25;2.25;;;;;27.02;44.84;101499.72;5080099;27;45311;-62
2023/08/23 01:05:22;;;;;;;;;1.50;1.50;;;;;27.02;44.76;101497.03;5079889;27;45351;-64
2023/08/23 01:08:26;;;;;;;;;3.00;3.00;;;;;27.02;44.81;101500.59;5079774;28;45447;-63
2023/08/23 01:11:01;;;;;;;;;2.25;2.25;;;;;27.04;44.65;101500.50;5042249;28;45618;-63
2023/08/23 01:13:33;;;;;;;;;3.00;2.50;;;;;26.98;44.98;101490.97;5112963;27;45495;-63
2023/08/23 01:15:59;;;;;;;;;5.75;2.00;;;;;26.96;45.10;101490.19;5079672;27;45453;-61
2023/08/23 01:18:27;;;;;;;;;2.75;2.75;;;;;26.95;44.63;101484.88;5079619;27;46064;-60
2023/08/23 01:20:53;;;;;;;;;4.00;2.80;;;;;27.01;44.35;101493.50;5079492;27;45439;-63
2023/08/23 01:23:20;;;;;;;;;2.50;2.50;;;;;27.01;44.52;101496.19;5079742;27;45346;-63
2023/08/23 01:25:50;;;;;;;;;1.75;1.75;;;;;26.98;44.74;101493.66;5078351;28;45530;-61
2023/08/23 01:28:16;;;;;;;;;2.00;2.00;;;;;26.92;44.61;101485.94;5079719;28;45308;-62
2023/08/23 01:30:42;;;;;;;;;2.50;2.25;;;;;26.96;44.50;101486.63;5079699;27;45729;-62
2023/08/23 01:33:37;;;;;;;;;1.75;1.75;;;;;26.95;44.73;101492.94;5079462;27;45403;-62
2023/08/23 01:36:26;;;;;;;;;3.00;3.00;;;;;26.94;44.76;101485.84;5073813;27;45574;-62
2023/08/23 01:38:52;;;;;;;;;1.25;1.25;;;;;26.92;45.40;101502.06;5078878;27;45968;-63
2023/08/23 01:41:18;;;;;;;;;2.25;1.00;;;;;26.91;44.62;101496.75;5078789;27;45439;-61
2023/08/23 01:43:47;;;;;;;;;4.00;3.00;;;;;26.84;44.94;101485.50;5079539;27;45388;-62
2023/08/23 01:46:13;;;;;;;;;3.25;2.00;;;;;26.89;44.98;101498.69;5079766;27;45255;-62
2023/08/23 01:48:39;;;;;;;;;4.00;2.00;;;;;26.90;44.95;101495.88;5079171;27;46349;-63
2023/08/23 01:51:06;;;;;;;;;3.50;3.00;;;;;26.90;45.05;101489.66;5077214;28;45461;-62
2023/08/23 01:53:31;;;;;;;;;3.75;3.00;;;;;26.89;45.29;101488.78;5079763;27;45432;-63
2023/08/23 01:55:57;;;;;;;;;4.00;2.50;;;;;26.87;44.94;101496.06;5113395;27;46706;-62
2023/08/23 01:58:25;;;;;;;;;4.00;2.50;;;;;26.81;44.99;101478.47;5080209;27;45382;-62
2023/08/23 02:00:51;;;;;;;;;2.60;2.60;;;;;26.83;45.13;101475.66;5079643;27;45275;-62
2023/08/23 02:03:20;;;;;;;;;2.00;2.00;;;;;26.81;45.06;101474.88;5075775;27;45587;-62
2023/08/23 02:05:47;;;;;;;;;3.00;2.50;;;;;26.78;45.20;101475.91;5069358;27;45660;-63
2023/08/23 02:08:14;;;;;;;;;3.00;3.00;;;;;26.84;45.20;101485.50;5060466;28;46884;-62
2023/08/23 02:10:40;;;;;;;;;4.20;3.00;;;;;26.83;45.14;101479.22;5071953;27;45425;-62
2023/08/23 02:13:06;;;;;;;;;3.75;2.50;;;;;26.80;45.14;101471.34;5059234;27;45397;-62
2023/08/23 02:15:32;;;;;;;;;2.00;2.00;;;;;26.81;45.46;101467.72;5059442;27;45556;-62
2023/08/23 02:17:58;;;;;;;;;4.25;3.00;;;;;26.81;45.35;101470.41;5069317;28;46169;-62
2023/08/23 02:20:23;;;;;;;;;1.00;1.00;;;;;26.73;45.17;101458.31;5063121;27;46030;-62
2023/08/23 02:22:49;;;;;;;;;3.50;2.25;;;;;26.76;45.09;101464.38;5060592;27;45404;-62
2023/08/23 02:25:14;;;;;;;;;3.75;2.00;;;;;26.76;45.31;101467.06;5070949;27;45445;-62
2023/08/23 02:27:40;;;;;;;;;2.75;1.50;;;;;26.71;45.29;101457.53;5079952;28;45468;-62
2023/08/23 02:30:06;;;;;;;;;4.25;2.50;;;;;26.74;45.41;101466.31;5079341;27;45388;-61
2023/08/23 02:32:32;;;;;;;;;3.75;3.00;;;;;26.70;45.39;101462.03;5078504;27;45292;-62
2023/08/23 02:34:58;;;;;;;;;3.75;2.75;;;;;26.64;45.35;101465.06;5078708;28;45417;-61
2023/08/23 02:37:23;;;;;;;;;5.00;2.00;;;;;26.43;46.00;101454.50;5079576;28;45297;-62
2023/08/23 02:39:49;;;;;;;;;2.00;2.00;;;;;26.50;45.70;101463.06;5078365;27;45586;-62
2023/08/23 02:42:14;;;;;;;;;2.25;2.25;;;;;26.53;45.58;101459.34;5078550;27;45458;-62
2023/08/23 02:44:40;;;;;;;;;3.75;2.25;;;;;26.56;45.82;101461.94;5079187;27;45278;-62
2023/08/23 02:47:05;;;;;;;;;3.75;3.00;;;;;26.55;45.87;101471.81;5079172;27;46522;-62
2023/08/23 02:49:35;;;;;;;;;6.50;3.00;;;;;26.45;46.03;101452.56;5077039;27;45644;-62
2023/08/23 02:52:00;;;;;;;;;3.00;2.00;;;;;26.50;45.81;101460.38;5077120;27;45589;-63
2023/08/23 02:54:26;;;;;;;;;3.00;3.00;;;;;26.55;45.48;101465.53;5078200;27;45382;-63
2023/08/23 02:56:55;;;;;;;;;3.25;3.25;;;;;26.42;45.81;101425.03;5077646;28;45789;-62
2023/08/23 02:59:20;;;;;;;;;4.00;3.00;;;;;26.33;45.86;101412.06;5078159;27;45477;-64
2023/08/23 03:01:46;;;;;;;;;3.00;3.00;;;;;26.54;45.85;101455.75;5078756;27;45727;-65
2023/08/23 03:04:11;;;;;;;;;3.00;3.00;;;;;26.53;46.04;101470.97;5078379;27;45467;-68
2023/08/23 03:06:37;;;;;;;;;2.00;2.00;;;;;26.53;45.98;101470.97;5077616;27;45440;-66
2023/08/23 03:09:02;;;;;;;;;2.75;2.25;;;;;26.52;46.01;101469.22;5078844;28;45459;-63
2023/08/23 03:11:28;;;;;;;;;4.25;3.00;;;;;26.52;45.94;101468.38;5079010;27;45485;-63
2023/08/23 03:13:54;;;;;;;;;3.00;3.00;;;;;26.44;46.00;101456.22;5078410;27;45460;-63
2023/08/23 03:16:20;;;;;;;;;3.00;3.00;;;;;26.40;46.05;101451.94;5078631;27;46204;-61
2023/08/23 03:18:45;;;;;;;;;3.00;3.00;;;;;26.47;45.97;101465.06;5078881;27;45384;-62
2023/08/23 03:21:11;;;;;;;;;5.50;5.50;;;;;26.45;45.94;101462.44;5077972;27;45445;-63
2023/08/23 03:23:36;;;;;;;;;3.75;3.75;;;;;26.45;46.10;101466.00;5078010;27;45475;-62
2023/08/23 03:26:02;;;;;;;;;6.75;6.50;;;;;26.37;46.29;101453.94;5077732;27;45428;-63
2023/08/23 03:28:33;;;;;;;;;4.75;3.25;;;;;26.39;45.90;101460.09;5077578;28;45449;-64
2023/08/23 03:31:05;;;;;;;;;6.00;6.00;;;;;26.37;46.13;101454.81;5077640;27;45433;-65
2023/08/23 03:33:31;;;;;;;;;9.75;7.25;;;;;26.37;45.77;101454.81;5078743;27;45560;-62
2023/08/23 03:35:56;;;;;;;;;6.75;4.50;;;;;26.39;46.15;101455.59;5077644;27;45978;-62
2023/08/23 03:38:22;;;;;;;;;6.75;5.50;;;;;26.39;46.40;101457.41;5077917;28;45364;-64
2023/08/23 03:40:50;;;;;;;;;6.50;6.00;;;;;26.32;45.94;101442.59;5077414;27;45624;-62
2023/08/23 03:43:16;;;;;;;;;5.00;5.00;;;;;26.35;46.37;101445.09;5077382;27;45363;-63
2023/08/23 03:45:49;;;;;;;;;5.25;4.75;;;;;26.28;46.00;101436.50;5077459;28;45268;-64
2023/08/23 03:48:17;;;;;;;;;5.00;4.00;;;;;26.31;46.46;101440.81;5077263;28;45350;-65
2023/08/23 03:50:43;;;;;;;;;7.50;5.00;;;;;26.28;46.63;101433.81;5076860;28;45487;-64
2023/08/23 03:53:08;;;;;;;;;4.00;2.25;;;;;26.28;46.46;101441.84;5077194;27;45455;-66
2023/08/23 03:55:36;;;;;;;;;2.75;2.75;;;;;26.26;46.40;101442.88;5077474;28;45706;-62
2023/08/23 03:58:03;;;;;;;;;4.50;2.75;;;;;26.31;46.17;101448.88;5077104;27;45352;-63
2023/08/23 04:00:29;;;;;;;;;7.25;3.50;;;;;26.22;46.45;101443.06;5076769;27;45425;-66
2023/08/23 04:02:54;;;;;;;;;4.00;2.50;;;;;26.15;46.80;101454.19;5077788;27;45751;-63
2023/08/23 04:05:20;;;;;;;;;3.00;3.00;;;;;26.14;46.49;101458.69;5077050;27;46103;-66
2023/08/23 04:07:45;;;;;;;;;2.25;2.25;;;;;26.10;46.62;101449.09;5077126;27;45548;-67
2023/08/23 04:10:11;;;;;;;;;4.50;3.25;;;;;26.11;46.45;101449.94;5077170;27;45469;-62
2023/08/23 04:12:38;;;;;;;;;3.00;3.00;;;;;26.12;46.90;101454.34;5078755;27;45418;-62
2023/08/23 04:15:04;;;;;;;;;4.25;3.00;;;;;26.15;46.93;101465.81;5079560;27;46782;-63
2023/08/23 04:17:30;;;;;;;;;2.00;2.00;;;;;26.05;47.00;101452.94;5079676;27;45433;-62
2023/08/23 04:19:55;;;;;;;;;3.00;3.00;;;;;26.15;46.77;101471.19;5077708;27;45315;-62
2023/08/23 04:22:21;;;;;;;;;2.25;2.25;;;;;26.08;46.95;101463.50;5077158;27;45569;-62
2023/08/23 04:24:48;;;;;;;;;2.50;2.00;;;;;26.07;46.82;101459.94;5076515;27;46163;-62
2023/08/23 04:27:14;;;;;;;;;3.00;1.00;;;;;26.10;46.72;101470.56;5076585;27;45477;-62
2023/08/23 04:29:39;;;;;;;;;7.25;3.25;;;;;26.05;46.83;101459.16;5076884;27;45292;-63
2023/08/23 04:32:09;;;;;;;;;4.25;2.75;;;;;26.04;46.81;101457.44;5076620;28;45437;-62
2023/08/23 04:34:35;;;;;;;;;2.00;2.00;;;;;26.05;47.12;101464.53;5110646;27;45430;-62
2023/08/23 04:37:01;;;;;;;;;3.00;2.00;;;;;26.04;46.91;101459.25;5077605;27;45306;-64
2023/08/23 04:39:26;;;;;;;;;2.25;2.25;;;;;26.07;47.03;101465.31;5077021;27;45374;-61
2023/08/23 04:41:52;;;;;;;;;3.00;2.50;;;;;26.04;47.43;101457.44;5077109;27;45470;-62
2023/08/23 04:44:17;;;;;;;;;4.00;4.00;;;;;26.06;47.36;101463.59;5076431;28;45421;-61
2023/08/23 04:46:44;;;;;;;;;3.50;3.50;;;;;26.03;46.96;101466.44;5076431;27;45449;-63
2023/08/23 04:49:10;;;;;;;;;4.75;2.00;;;;;25.82;47.16;101438.84;5076520;27;45469;-62
2023/08/23 04:51:35;;;;;;;;;3.00;3.00;;;;;25.93;47.45;101457.97;5059561;27;45486;-61
2023/08/23 04:54:01;;;;;;;;;3.50;3.50;;;;;25.69;47.49;101460.03;5057004;28;45460;-62
2023/08/23 04:56:27;;;;;;;;;4.25;2.00;;;;;25.55;48.24;101466.09;5058454;27;46114;-64
2023/08/23 04:58:53;;;;;;;;;3.00;3.00;;;;;25.53;48.19;101468.00;5057574;28;45246;-62
2023/08/23 05:01:18;;;;;;;;;4.50;3.00;;;;;25.54;48.24;101459.00;5060143;28;45599;-61
2023/08/23 05:03:44;;;;;;;;;3.00;3.00;;;;;25.64;48.03;101463.91;5059899;27;45810;-63
2023/08/23 05:06:09;;;;;;;;;3.00;3.00;;;;;25.55;48.04;101460.72;5060920;28;45371;-65
2023/08/23 05:08:35;;;;;;;;;5.00;4.00;;;;;25.54;48.39;101460.81;5064028;27;45424;-60
2023/08/23 05:11:00;;;;;;;;;5.75;3.00;;;;;25.56;48.00;101469.66;5064105;28;45463;-62
2023/08/23 05:13:26;;;;;;;;;6.00;2.75;;;;;25.52;48.12;101471.63;5067777;27;45391;-66
2023/08/23 05:15:56;;;;;;;;;2.25;2.00;;;;;25.45;48.32;101477.38;5065500;27;45550;-62
2023/08/23 05:18:22;;;;;;;;;2.00;2.00;;;;;25.36;48.98;101476.84;5071546;27;45517;-66
2023/08/23 05:21:08;;;;;;;;;5.25;3.00;;;;;25.37;48.99;101467.88;5068581;27;45267;-66
2023/08/23 05:23:34;;;;;;;;;3.00;3.00;;;;;25.44;48.95;101476.50;5072997;27;46626;-66
2023/08/23 05:25:59;;;;;;;;;7.25;5.00;;;;;25.34;49.27;101470.72;5075885;28;45537;-62
2023/08/23 05:28:25;;;;;;;;;3.00;3.00;;;;;25.23;49.25;101453.41;5072122;27;45198;-62
2023/08/23 05:30:50;;;;;;;;;2.00;2.00;;;;;25.26;49.36;101470.19;5064280;27;45480;-61
2023/08/23 05:33:16;;;;;;;;;0.75;0.75;;;;;25.29;49.40;101462.00;5062014;27;46610;-61
2023/08/23 05:35:43;;;;;;;;;1.75;1.75;;;;;25.38;48.85;101474.97;5063803;27;45939;-62
2023/08/23 05:38:12;;;;;;;;;1.75;1.75;;;;;25.25;50.22;101470.25;5064417;27;45496;-62
2023/08/23 05:40:38;;;;;;;;;3.00;3.00;;;;;25.11;49.97;101477.13;5063420;27;45330;-61
2023/08/23 05:43:05;;;;;;;;;3.50;3.50;;;;;25.12;49.95;101480.69;5067768;27;46089;-61
2023/08/23 05:45:30;;;;;;;;;2.00;2.00;;;;;24.93;50.20;101478.00;5078666;27;45943;-61
2023/08/23 05:48:01;;;;;;;;;4.00;2.00;;;;;24.98;50.05;101476.81;5090150;27;45393;-60
2023/08/23 05:50:28;;;;;;;;;3.25;2.50;;;;;24.97;50.14;101472.41;5072175;27;45485;-62
2023/08/23 05:52:53;;;;;;;;;3.25;3.00;;;;;25.18;50.11;101483.13;5067568;27;46730;-60
2023/08/23 05:55:19;;;;;;;;;3.00;3.00;;;;;25.34;49.65;101475.19;5064654;27;45348;-61
2023/08/23 05:57:45;;;;;;;;;3.00;3.00;;;;;25.47;48.87;101473.66;5068500;27;45250;-61
2023/08/23 06:00:11;;;;;;;;;3.00;3.00;;;;;25.56;48.73;101467.00;5069221;27;45441;-61
2023/08/23 06:02:38;;;;;;;;;6.00;3.00;;;;;25.49;48.73;101462.88;5070468;28;45302;-60
2023/08/23 06:05:05;;;;;;;;;4.25;3.00;;;;;25.48;48.71;101461.09;5070283;27;45470;-60
2023/08/23 06:07:31;;;;;;;;;2.75;2.75;;;;;25.47;49.03;101464.75;5074257;27;45632;-60
2023/08/23 06:09:56;;;;;;;;;2.25;2.25;;;;;25.45;49.23;101469.31;5073631;27;45859;-61
2023/08/23 06:13:11;;;;;;;;;2.50;2.50;;;;;25.46;49.14;101474.63;5069708;28;47790;-60
2023/08/23 06:15:40;;;;;;;;;4.00;3.00;;;;;25.58;49.37;101476.69;5090473;27;46145;-61
2023/08/23 06:18:06;;;;;;;;;3.50;3.50;;;;;25.70;48.88;101477.00;5062246;27;46050;-61
2023/08/23 06:20:32;;;;;;;;;3.00;3.00;;;;;25.80;48.18;101463.06;5062621;27;45514;-61
2023/08/23 06:22:58;;;;;;;;;3.25;2.25;;;;;25.88;48.15;101453.78;5071735;28;45429;-61
2023/08/23 06:25:24;;;;;;;;;4.00;3.00;;;;;25.94;48.10;101461.56;5075491;27;45544;-61
2023/08/23 06:27:50;;;;;;;;;5.00;3.25;;;;;25.87;48.50;101457.44;5079089;28;45523;-61
2023/08/23 06:30:16;;;;;;;;;4.25;3.25;;;;;25.74;48.59;101474.09;5078373;27;45398;-61
2023/08/23 06:32:46;;;;;;;;;3.50;3.00;;;;;25.78;48.42;101472.16;5077584;27;46245;-61
2023/08/23 06:35:13;;;;;;;;;3.25;3.25;;;;;25.96;48.11;101465.88;5069659;28;45430;-63
2023/08/23 06:37:39;;;;;;;;;5.25;4.00;;;;;26.05;48.07;101463.66;5059793;27;45389;-61
2023/08/23 06:40:05;;;;;;;;;3.50;3.00;;;;;26.16;47.74;101461.31;5065309;27;45449;-61
2023/08/23 06:42:30;;;;;;;;;5.00;4.75;;;;;26.11;48.21;101456.16;5058663;27;46058;-59
2023/08/23 06:44:56;;;;;;;;;7.75;4.50;;;;;26.17;48.17;101463.91;5071905;27;45570;-60
2023/08/23 06:47:21;;;;;;;;;3.50;3.25;;;;;26.07;48.04;101461.78;5059021;27;45383;-63
2023/08/23 06:49:47;;;;;;;;;5.25;3.25;;;;;26.26;47.27;101467.06;5092404;27;45393;-61
2023/08/23 06:52:16;;;;;;;;;3.00;3.00;;;;;26.26;47.43;101462.56;5058624;28;45380;-61
2023/08/23 06:54:42;;;;;;;;;4.00;3.00;;;;;26.29;47.50;101442.72;5058182;27;45570;-61
2023/08/23 06:57:07;;;;;;;;;3.75;3.75;;;;;26.40;47.52;101467.19;5058690;28;45396;-62
2023/08/23 06:59:34;;;;;;;;;3.25;3.25;;;;;26.39;47.03;101452.91;5059222;28;45591;-61
2023/08/23 07:01:59;;;;;;;;;3.50;3.00;;;;;26.49;47.08;101452.44;5059684;27;46538;-62
2023/08/23 07:04:25;;;;;;;;;4.00;4.00;;;;;26.61;46.55;101470.59;5058669;28;45757;-61
2023/08/23 07:06:50;;;;;;;;;4.00;4.00;;;;;26.52;46.95;101463.84;5059692;27;45378;-62
2023/08/23 07:09:16;;;;;;;;;4.00;4.00;;;;;26.49;46.56;101471.22;5062548;27;45439;-62
2023/08/23 07:11:41;;;;;;;;;1.75;1.00;;;;;26.54;46.90;101488.84;5070635;27;47742;-61
2023/08/23 07:14:08;;;;;;;;;4.50;4.00;;;;;26.44;47.28;101492.97;5068562;27;45446;-61
2023/08/23 07:16:34;;;;;;;;;4.00;4.00;;;;;26.37;47.76;101481.66;5073072;27;45483;-61
2023/08/23 07:19:03;;;;;;;;;4.25;3.75;;;;;26.47;47.22;101492.78;5068185;27;45488;-61
2023/08/23 07:21:29;;;;;;;;;6.50;5.00;;;;;26.49;47.20;101482.84;5072869;27;46362;-62
2023/08/23 07:23:58;;;;;;;;;5.75;4.25;;;;;26.45;46.87;101478.56;5069515;27;45486;-63
2023/08/23 07:26:24;;;;;;;;;3.00;3.00;;;;;26.48;46.87;101473.06;5078612;28;45520;-63
2023/08/23 07:28:50;;;;;;;;;3.00;3.00;;;;;26.58;46.86;101485.06;5078236;27;45525;-62
2023/08/23 07:31:15;;;;;;;;;3.25;2.75;;;;;26.69;46.75;101487.16;5073726;27;46073;-64
2023/08/23 07:33:41;;;;;;;;;5.00;3.25;;;;;26.70;46.61;101482.69;5062969;28;45343;-67
2023/08/23 07:36:07;;;;;;;;;5.75;4.00;;;;;26.52;46.73;101479.97;5072134;28;45413;-62
2023/08/23 07:38:33;;;;;;;;;3.00;3.00;;;;;26.48;46.86;101489.16;5066246;27;45441;-67
2023/08/23 07:41:01;;;;;;;;;4.00;4.00;;;;;26.35;47.24;101491.63;5077213;27;45331;-61
2023/08/23 07:43:27;;;;;;;;;8.25;5.00;;;;;26.35;47.50;101491.63;5077148;27;45497;-61
2023/08/23 07:45:57;;;;;;;;;4.25;4.25;;;;;26.40;47.21;101489.53;5077197;27;45753;-61
2023/08/23 07:48:23;;;;;;;;;4.50;4.00;;;;;26.51;46.94;101491.69;5077407;27;45428;-61
2023/08/23 07:50:55;;;;;;;;;3.25;3.25;;;;;26.47;47.05;101492.78;5077049;27;45637;-61
2023/08/23 07:53:21;;;;;;;;;7.00;6.00;;;;;26.38;47.67;101483.38;5076828;27;45389;-61
2023/08/23 07:55:47;;;;;;;;;5.50;4.25;;;;;26.46;47.07;101491.06;5076901;27;45799;-61
2023/08/23 07:58:13;;;;;;;;;4.50;4.25;;;;;26.62;47.62;101493.81;5067901;27;45567;-61
2023/08/23 08:00:39;;;;;;;;;3.00;3.00;;;;;26.69;47.01;101475.56;5063253;27;46205;-61
2023/08/23 08:03:06;;;;;;;;;5.50;4.00;;;;;26.76;46.91;101493.09;5069684;27;45522;-61
2023/08/23 08:05:33;;;;;;;;;5.25;4.50;;;;;26.74;47.11;101501.25;5063345;27;45345;-61
2023/08/23 08:07:58;;;;;;;;;6.75;4.75;;;;;26.67;47.04;101505.19;5063768;28;45257;-64
2023/08/23 08:10:24;;;;;;;;;4.25;4.25;;;;;26.74;47.06;101492.28;5092000;27;47098;-61
2023/08/23 08:12:50;;;;;;;;;6.25;6.00;;;;;26.95;46.41;101498.31;5066535;27;45374;-60
2023/08/23 08:15:15;;;;;;;;;7.25;6.00;;;;;26.97;46.34;101497.28;5060224;27;45389;-61
2023/08/23 08:17:43;;;;;;;;;7.00;5.00;;;;;27.03;45.97;101494.28;5059048;27;45476;-61
2023/08/23 08:20:10;;;;;;;;;4.75;4.75;;;;;27.23;46.06;101497.69;5060724;27;46443;-61
2023/08/23 08:22:37;;;;;;;;;5.75;4.50;;;;;27.24;46.05;101497.63;5058576;27;45435;-61
2023/08/23 08:25:04;;;;;;;;;5.25;5.25;;;;;27.30;46.17;101487.47;5067219;28;45390;-62
2023/08/23 08:27:30;;;;;;;;;8.50;4.25;;;;;27.19;46.23;101483.56;5076418;27;45875;-60
2023/08/23 08:29:56;;;;;;;;;7.50;5.25;;;;;27.05;46.73;101489.69;5076661;27;45912;-62
2023/08/23 08:32:21;;;;;;;;;4.25;4.25;;;;;27.15;46.38;101481.97;5076417;27;45411;-61
2023/08/23 08:34:47;;;;;;;;;6.50;5.00;;;;;27.37;45.91;101495.09;5076527;27;45530;-62
2023/08/23 08:37:13;;;;;;;;;4.00;4.00;;;;;27.37;46.14;101483.47;5077044;27;45434;-63
2023/08/23 08:39:38;;;;;;;;;4.50;4.50;;;;;27.41;45.96;101491.28;5110346;27;45426;-61
2023/08/23 08:42:04;;;;;;;;;8.00;7.00;;;;;27.52;45.60;101487.13;5077999;27;45332;-62
2023/08/23 08:44:30;;;;;;;;;5.00;4.25;;;;;27.62;45.50;101493.69;5076717;27;45385;-61
2023/08/23 08:46:56;;;;;;;;;3.75;3.75;;;;;27.74;45.50;101501.06;5077470;28;45440;-62
2023/08/23 08:49:21;;;;;;;;;8.00;7.00;;;;;27.64;45.15;101487.25;5080085;28;46217;-62
2023/08/23 08:51:48;;;;;;;;;6.50;5.25;;;;;27.64;45.69;101486.41;5079686;27;45447;-61
2023/08/23 08:54:17;;;;;;;;;5.75;5.75;;;;;27.67;45.49;101497.00;5080101;27;45413;-61
2023/08/23 08:56:47;;;;;;;;;6.00;5.00;;;;;27.72;45.80;101505.69;5079870;27;45382;-61
2023/08/23 08:59:15;;;;;;;;;7.00;3.25;;;;;27.83;45.17;101503.25;5079735;27;45525;-63
2023/08/23 09:01:43;;;;;;;;;5.00;3.00;;;;;28.01;44.72;101509.38;5079916;28;45207;-62
2023/08/23 09:04:09;;;;;;;;;5.25;4.25;;;;;28.13;44.50;101505.09;5080260;27;45445;-61
2023/08/23 09:06:40;;;;;;;;;4.75;4.75;;;;;28.29;44.27;101510.44;5079711;28;45700;-62
2023/08/23 09:09:06;;;;;;;;;6.00;5.25;;;;;28.34;44.12;101500.25;5079239;28;46113;-63
2023/08/23 09:11:32;;;;;;;;;4.75;4.75;;;;;28.37;43.82;101491.09;5079026;27;45457;-62
2023/08/23 09:13:58;;;;;;;;;6.75;6.75;;;;;28.47;43.87;101508.47;5079389;28;46354;-62
2023/08/23 09:16:24;;;;;;;;;10.25;6.00;;;;;28.54;43.37;101515.22;5078106;28;45313;-63
2023/08/23 09:18:50;;;;;;;;;4.00;4.00;;;;;28.51;43.97;101507.31;5079344;27;45653;-62
2023/08/23 09:21:19;;;;;;;;;5.50;4.50;;;;;28.57;43.57;101506.97;5078034;28;45420;-62
2023/08/23 09:23:48;;;;;;;;;7.50;7.50;;;;;28.61;43.51;101492.31;5079567;28;45222;-63
2023/08/23 09:26:15;;;;;;;;;7.75;7.75;;;;;28.61;43.08;101489.63;5080563;27;45543;-63
2023/08/23 09:28:40;;;;;;;;;7.00;6.00;;;;;28.70;43.75;101480.97;5079939;27;45342;-63
2023/08/23 09:31:09;;;;;;;;;8.50;6.50;;;;;28.71;42.82;101480.03;5079132;28;45479;-63
2023/08/23 09:33:35;;;;;;;;;8.75;7.00;;;;;28.88;43.02;101492.44;5079608;27;45217;-63
2023/08/23 09:36:01;;;;;;;;;6.25;5.00;;;;;28.95;43.08;101490.22;5080099;28;45402;-62
2023/08/23 09:38:27;;;;;;;;;8.75;8.25;;;;;29.01;42.83;101497.91;5080752;27;45473;-63
2023/08/23 09:40:54;;;;;;;;;7.50;6.25;;;;;29.03;42.98;101492.41;5080578;27;46127;-63
2023/08/23 09:43:22;;;;;;;;;8.00;6.50;;;;;29.06;43.25;101490.38;5077844;28;45554;-61
2023/08/23 09:45:48;;;;;;;;;7.25;5.75;;;;;29.12;43.52;101503.53;5079287;27;45586;-62
2023/08/23 09:48:17;;;;;;;;;4.25;4.25;;;;;29.25;43.07;101502.72;5078864;27;45323;-62
2023/08/23 09:50:43;;;;;;;;;5.40;5.40;;;;;29.39;42.68;101497.28;5112266;27;45701;-63
2023/08/23 09:53:22;;;;;;;;;5.50;5.50;;;;;29.55;42.37;101506.13;5080115;27;45265;-68
2023/08/23 09:55:48;;;;;;;;;8.75;6.75;;;;;29.53;41.73;101491.00;5082006;27;45275;-66
2023/08/23 09:58:20;;;;;;;;;7.00;7.00;;;;;29.65;41.70;101492.03;5079919;27;46459;-62
2023/08/23 10:00:50;;;;;;;;;6.00;6.00;;;;;29.72;41.60;101485.28;5112132;27;45414;-62
2023/08/23 10:03:16;;;;;;;;;8.00;8.00;;;;;29.87;41.73;101489.63;5079904;27;45408;-63
2023/08/23 10:05:43;;;;;;;;;7.25;6.75;;;;;29.96;41.84;101480.91;5079955;27;45536;-64
2023/08/23 10:08:09;;;;;;;;;5.25;5.25;;;;;30.04;41.70;101471.41;5079442;27;46120;-62
2023/08/23 10:10:37;;;;;;;;;8.25;7.00;;;;;30.00;41.42;101465.38;5078025;27;45511;-63
2023/08/23 10:13:05;;;;;;;;;8.75;8.00;;;;;29.97;41.03;101468.25;5078707;27;45247;-64
2023/08/23 10:15:34;;;;;;;;;6.75;6.75;;;;;30.04;40.82;101466.00;5078509;27;45299;-63
2023/08/23 10:18:01;;;;;;;;;7.75;7.50;;;;;30.17;40.41;101465.06;5078482;28;45441;-65
2023/08/23 10:20:27;;;;;;;;;7.60;7.00;;;;;30.10;41.47;101460.19;5078507;27;45488;-62
2023/08/23 10:22:55;;;;;;;;;9.25;7.00;;;;;30.24;41.08;101454.69;5078866;28;45492;-63
2023/08/23 10:25:22;;;;;;;;;6.25;6.00;;;;;30.36;40.74;101453.00;5078725;27;45335;-62
2023/08/23 10:27:51;;;;;;;;;9.00;6.75;;;;;30.48;40.57;101448.59;5078417;27;45330;-62
2023/08/23 10:30:25;;;;;;;;;7.40;5.80;;;;;30.63;40.71;101450.19;5079210;28;45413;-64
2023/08/23 10:32:54;;;;;;;;;5.60;5.20;;;;;30.74;40.51;101450.28;5111836;27;45372;-65
2023/08/23 10:35:23;;;;;;;;;7.00;7.00;;;;;30.79;40.31;101448.09;5079401;27;45480;-62
2023/08/23 10:37:51;;;;;;;;;7.75;7.50;;;;;30.87;39.78;101436.75;5078634;27;45561;-62
2023/08/23 10:40:27;;;;;;;;;9.80;6.40;;;;;30.97;40.06;101424.31;5078898;28;45803;-62
2023/08/23 10:42:52;;;;;;;;;8.20;7.40;;;;;30.93;40.32;101430.06;5079587;27;45338;-62
2023/08/23 10:45:18;;;;;;;;;8.75;7.00;;;;;31.00;40.19;101444.88;5078616;27;45432;-62
2023/08/23 10:47:47;;;;;;;;;7.00;5.25;;;;;31.13;40.42;101445.66;5078373;27;45339;-62
2023/08/23 10:50:14;;;;;;;;;8.40;7.00;;;;;31.02;39.61;101442.91;5078542;27;45622;-63
2023/08/23 10:52:39;;;;;;;;;11.40;8.60;;;;;30.94;40.43;101445.31;5079095;27;45393;-64
2023/08/23 10:55:05;;;;;;;;;8.75;7.00;;;;;30.99;40.54;101445.81;5078136;27;45386;-62
2023/08/23 10:57:31;;;;;;;;;8.75;7.00;;;;;31.10;39.98;101455.88;5077755;27;46652;-61
2023/08/23 10:59:56;;;;;;;;;8.50;7.00;;;;;31.25;40.29;101449.31;5077613;27;45447;-62
2023/08/23 11:02:22;;;;;;;;;8.50;7.00;;;;;31.20;39.22;101444.25;5078658;27;45566;-63
2023/08/23 11:04:48;;;;;;;;;7.00;7.00;;;;;31.34;39.20;101455.91;5078745;27;45410;-61
2023/08/23 11:07:14;;;;;;;;;7.25;7.25;;;;;31.46;39.45;101449.59;5076503;28;45411;-60
2023/08/23 11:09:41;;;;;;;;;6.80;6.80;;;;;31.50;39.17;101444.81;5076363;28;45413;-63
2023/08/23 11:12:07;;;;;;;;;7.20;7.20;;;;;31.62;39.17;101443.91;5076652;27;45274;-63
2023/08/23 11:14:33;;;;;;;;;7.75;7.75;;;;;31.79;38.67;101442.59;5079061;27;45246;-66
2023/08/23 11:16:58;;;;;;;;;8.25;7.00;;;;;31.74;38.87;101432.13;5078319;27;46491;-61
2023/08/23 11:19:24;;;;;;;;;7.00;7.00;;;;;31.66;39.46;101432.72;5077651;27;45458;-64
2023/08/23 11:21:51;;;;;;;;;6.25;6.25;;;;;31.72;39.37;101419.69;5077632;27;45376;-62
2023/08/23 11:24:17;;;;;;;;;10.00;7.50;;;;;31.91;38.96;101414.56;5078009;27;45418;-63